Aérodrome :
LOGIN :

S'inscrire | Disclaimer

   EN    FR    IT 

 










Légende :    VFR   VFR Marginal   IFR   IFR Intensif   IFR Très Intensif
Visi : 
Plafond : 
>= 8 km
>= 3000ft
5 à 8 km
1000 à 3000 ft
1500m à 5 km
500 à 1000 ft
800 à 1500m
200 à 500 ft
< 800m
< 200 ft
Symboles :   Orages  Brouillard  Fortes neiges  Fortes précipitations  Vent > 20 kt
SIGMETs :   Divers  Orages  Givrage  Turbulence  Onde Orograph.  Cendres Volcan.







- Altitude de l'aérodrome : 1197 ft
- Code IATA : SPM


ETAD - Spangdahlem Ab

DERNIER METAR :
  • 300958Z AUTO 00000KT 9999 CLR 16/08 A3032 RMK AO2 SLP257 T01630076 TSNO $

METARs EXPIRÉS :
  • 300858Z AUTO 00000KT 9999 CLR 15/08 A3033 RMK AO2 SLP261 T01460077 50001 TSNO $
  • 300758Z AUTO 10003KT 9999 CLR 12/07 A3033 RMK AO2 SLP262 T01190071 TSNO $

TAF AMD TAF ETAD
Valide du 30 à 06h jusqu'au 31 à 09h UTC


300617Z 3006/3109 VRB06KT 8000 BR SCT050 BKN060 QNH3030INS
BECMG 3006/3007 20006KT 9999 NSW SCT050 QNH3026INS
BECMG 3012/3013 15009KT 9999 FEW030 SCT200 QNH3010INS
BECMG 3105/3106 20009KT 9999 SCT200 QNH3004INS TX18/3012Z TN07/3106Z
Pas de NOTAMs connus pour ce terrain.



MET'MAP, la Météo Aéronautique d'un coup d'oeil ! - Copyright ORBIFLY Décembre 2007 - Disclaimer

ORBIFLY MET'MAP TEAM :

Programmation & Développement : Alexandra Zaïnal
Conception & Développement : Baudouin d'Aumeries
Co-Programmation & Développement : Marc-Olivier Méhu
Soutien technique & logistique : Manuel Goepfert

Contact : metmap@orbifly.com




SOURCES & CREDITS :

   NOAA